Time;durP1;ratioP1;P1;durP2;ratioP2;P2;SDS_P1;SDS_P2;PMS_P1;PMS_P2;Temp;Humidity;BMP_temperature;BMP_pressure;BME280_temperature;BME280_humidity;BME280_pressure;Samples;Min_cycle;Max_cycle;Signal;HPM_P1;HPM_P2
2021/08/31 00:02:13;;;;;;;0.70;0.70;;;14.60;99.90;;;;;;4979801;28;20241;-79
2021/08/31 00:04:40;;;;;;;0.88;0.88;;;14.60;99.90;;;;;;4978213;28;20280;-79
2021/08/31 00:07:08;;;;;;;1.15;1.05;;;14.60;99.90;;;;;;4976772;28;20245;-79
2021/08/31 00:09:36;;;;;;;0.90;0.90;;;14.60;99.90;;;;;;4979585;28;20232;-79
2021/08/31 00:12:03;;;;;;;0.95;0.95;;;14.60;99.90;;;;;;4979992;28;20692;-80
2021/08/31 00:14:30;;;;;;;0.90;0.90;;;14.60;99.90;;;;;;4977274;28;20233;-79
2021/08/31 00:16:57;;;;;;;0.70;0.70;;;14.60;99.90;;;;;;4975188;28;20257;-79
2021/08/31 00:19:24;;;;;;;0.90;0.90;;;14.60;99.90;;;;;;4982269;28;20224;-80
2021/08/31 00:21:51;;;;;;;0.70;0.70;;;14.60;99.90;;;;;;4988278;28;20239;-80
2021/08/31 00:24:22;;;;;;;0.93;0.93;;;14.60;99.90;;;;;;4987258;28;20288;-80
2021/08/31 00:26:49;;;;;;;1.50;1.10;;;14.60;99.90;;;;;;4985503;28;20226;-80
2021/08/31 00:29:16;;;;;;;0.90;0.90;;;14.60;99.90;;;;;;4988955;28;20225;-80
2021/08/31 00:31:43;;;;;;;0.80;0.80;;;14.60;99.90;;;;;;4988913;28;20229;-80
2021/08/31 00:34:10;;;;;;;0.85;0.85;;;14.60;99.90;;;;;;4979115;28;20253;-79
2021/08/31 00:36:37;;;;;;;0.90;0.90;;;14.50;99.90;;;;;;4967201;28;20273;-79
2021/08/31 00:39:04;;;;;;;0.90;0.90;;;14.50;99.90;;;;;;4969745;28;20287;-79
2021/08/31 00:41:35;;;;;;;1.00;1.00;;;14.40;99.90;;;;;;4969392;28;20229;-79
2021/08/31 00:44:03;;;;;;;0.95;0.88;;;14.40;99.90;;;;;;4967543;28;20260;-79
2021/08/31 00:46:31;;;;;;;0.77;0.77;;;14.40;99.90;;;;;;4968181;28;20229;-79
2021/08/31 00:48:58;;;;;;;1.02;1.02;;;14.40;99.90;;;;;;4972054;28;20276;-79
2021/08/31 00:51:25;;;;;;;0.90;0.90;;;14.40;99.90;;;;;;4967098;28;20221;-79
2021/08/31 00:53:53;;;;;;;0.82;0.82;;;14.40;99.90;;;;;;4967873;28;20221;-79
2021/08/31 00:56:21;;;;;;;0.88;0.88;;;14.30;99.90;;;;;;4967469;28;20248;-79
2021/08/31 00:58:50;;;;;;;1.05;1.05;;;14.30;99.90;;;;;;4970635;28;20288;-79
2021/08/31 01:01:17;;;;;;;0.88;0.88;;;14.20;99.90;;;;;;4968747;28;20233;-79
2021/08/31 01:03:45;;;;;;;1.17;1.08;;;14.20;99.90;;;;;;4963733;28;20238;-79
2021/08/31 01:06:13;;;;;;;1.05;1.00;;;14.20;99.90;;;;;;4970526;28;20242;-79
2021/08/31 01:08:40;;;;;;;1.05;1.05;;;14.20;99.90;;;;;;4967765;28;20773;-79
2021/08/31 01:11:07;;;;;;;0.90;0.90;;;14.20;99.90;;;;;;4969867;28;20296;-79
2021/08/31 01:13:36;;;;;;;0.95;0.95;;;14.20;99.90;;;;;;4965249;28;20277;-79
2021/08/31 01:16:05;;;;;;;0.73;0.73;;;14.20;99.90;;;;;;4965470;28;20237;-79
2021/08/31 01:18:34;;;;;;;2.90;1.23;;;14.20;99.90;;;;;;4968795;28;20291;-78
2021/08/31 01:21:01;;;;;;;2.28;1.15;;;14.10;99.90;;;;;;4983513;28;20247;-80
2021/08/31 01:23:29;;;;;;;0.90;0.90;;;14.10;99.90;;;;;;4981843;28;20229;-79
2021/08/31 01:25:58;;;;;;;0.90;0.90;;;14.10;99.90;;;;;;4981746;28;20252;-80
2021/08/31 01:28:29;;;;;;;0.85;0.85;;;14.10;99.90;;;;;;4982974;28;20713;-80
2021/08/31 01:30:58;;;;;;;0.77;0.77;;;14.10;99.90;;;;;;4982125;28;20257;-79
2021/08/31 01:33:27;;;;;;;0.80;0.80;;;14.10;99.90;;;;;;4984788;28;20221;-80
2021/08/31 01:35:54;;;;;;;1.00;1.00;;;14.10;99.90;;;;;;4986775;28;20305;-80
2021/08/31 01:38:22;;;;;;;0.90;0.90;;;14.10;99.90;;;;;;4983159;28;20221;-80
2021/08/31 01:40:49;;;;;;;0.60;0.60;;;14.00;99.90;;;;;;4982376;28;20275;-80
2021/08/31 01:43:23;;;;;;;0.88;0.88;;;14.00;99.90;;;;;;4979641;28;20220;-79
2021/08/31 01:45:51;;;;;;;0.90;0.90;;;14.00;99.90;;;;;;4984177;28;20256;-80
2021/08/31 01:48:18;;;;;;;0.90;0.90;;;14.00;99.90;;;;;;4971629;28;20322;-80
2021/08/31 01:50:45;;;;;;;1.20;1.20;;;13.90;99.90;;;;;;4984039;28;20766;-79
2021/08/31 01:53:12;;;;;;;0.90;0.90;;;13.90;99.90;;;;;;4983451;28;20262;-80
2021/08/31 01:55:39;;;;;;;0.82;0.82;;;14.00;99.90;;;;;;4986913;28;20249;-80
2021/08/31 01:58:06;;;;;;;0.90;0.90;;;14.00;99.90;;;;;;4983984;28;20268;-80
2021/08/31 02:00:35;;;;;;;0.80;0.80;;;13.90;99.90;;;;;;4983578;28;20688;-80
2021/08/31 02:03:02;;;;;;;0.77;0.77;;;14.00;99.90;;;;;;4988097;28;20233;-81
2021/08/31 02:05:29;;;;;;;0.90;0.90;;;14.00;99.90;;;;;;4986897;28;20261;-79
2021/08/31 02:07:57;;;;;;;0.90;0.90;;;14.00;99.90;;;;;;4981546;28;20225;-79
2021/08/31 02:10:24;;;;;;;0.85;0.85;;;13.90;99.90;;;;;;4989645;28;20225;-80
2021/08/31 02:12:51;;;;;;;0.80;0.80;;;13.90;99.90;;;;;;4984723;28;20249;-79
2021/08/31 02:15:18;;;;;;;1.00;1.00;;;13.90;99.90;;;;;;4974217;28;20229;-78
2021/08/31 02:17:46;;;;;;;1.00;1.00;;;13.90;99.90;;;;;;4965292;28;20241;-78
2021/08/31 02:20:14;;;;;;;1.83;1.10;;;13.80;99.90;;;;;;4963199;28;20276;-78
2021/08/31 02:22:42;;;;;;;0.70;0.70;;;13.90;99.90;;;;;;4967657;28;20308;-78
2021/08/31 02:25:10;;;;;;;1.00;1.00;;;13.80;99.90;;;;;;4965255;28;20244;-78
2021/08/31 02:27:37;;;;;;;0.70;0.70;;;13.80;99.90;;;;;;4961447;28;20217;-78
2021/08/31 02:30:05;;;;;;;0.80;0.80;;;13.80;99.90;;;;;;4963002;28;20228;-78
2021/08/31 02:32:32;;;;;;;0.80;0.80;;;13.80;99.90;;;;;;4962675;28;20240;-78
2021/08/31 02:35:02;;;;;;;1.10;1.10;;;13.80;99.90;;;;;;4961687;28;20225;-77
2021/08/31 02:37:29;;;;;;;0.98;0.98;;;13.80;99.90;;;;;;4965846;28;20300;-78
2021/08/31 02:39:56;;;;;;;1.10;1.00;;;13.70;99.90;;;;;;4962388;28;20276;-78
2021/08/31 02:42:23;;;;;;;0.90;0.90;;;13.70;99.90;;;;;;4962902;28;20296;-78
2021/08/31 02:44:50;;;;;;;0.90;0.90;;;13.70;99.90;;;;;;4963591;28;20213;-79
2021/08/31 02:47:17;;;;;;;1.00;1.00;;;13.70;99.90;;;;;;4965778;28;20234;-78
2021/08/31 02:49:45;;;;;;;0.98;0.98;;;13.60;99.90;;;;;;4958525;28;20218;-78
2021/08/31 02:52:14;;;;;;;1.05;1.05;;;13.60;99.90;;;;;;4962688;28;20300;-79
2021/08/31 02:54:41;;;;;;;0.82;0.82;;;13.60;99.90;;;;;;4953135;28;20660;-79
2021/08/31 02:57:08;;;;;;;1.02;1.00;;;13.60;99.90;;;;;;4965949;28;20221;-79
2021/08/31 02:59:35;;;;;;;1.10;1.10;;;13.60;99.90;;;;;;4967876;28;20276;-80
2021/08/31 03:02:08;;;;;;;0.90;0.90;;;13.60;99.90;;;;;;4970249;28;20307;-79
2021/08/31 03:04:36;;;;;;;0.80;0.80;;;13.60;99.90;;;;;;4966851;28;20245;-80
2021/08/31 03:07:04;;;;;;;0.80;0.80;;;13.70;99.90;;;;;;4967151;28;20221;-79
2021/08/31 03:09:33;;;;;;;0.80;0.80;;;13.70;99.90;;;;;;4967069;28;21199;-81
2021/08/31 03:12:01;;;;;;;1.10;1.08;;;13.70;99.90;;;;;;4966780;28;20513;-80
2021/08/31 03:14:28;;;;;;;0.90;0.90;;;13.70;99.90;;;;;;4969601;28;20246;-79
2021/08/31 03:16:56;;;;;;;0.93;0.93;;;13.60;99.90;;;;;;4968087;28;20240;-79
2021/08/31 03:19:24;;;;;;;1.10;1.10;;;13.60;99.90;;;;;;4968416;28;20854;-79
2021/08/31 03:21:52;;;;;;;1.02;1.02;;;13.60;99.90;;;;;;4971469;28;20221;-82
2021/08/31 03:24:19;;;;;;;1.13;1.13;;;13.50;99.90;;;;;;4967940;28;20221;-80
2021/08/31 03:26:48;;;;;;;1.15;0.90;;;13.60;99.90;;;;;;4967836;28;20755;-80
2021/08/31 03:29:15;;;;;;;1.00;1.00;;;13.50;99.90;;;;;;4970252;28;20249;-83
2021/08/31 03:31:42;;;;;;;0.90;0.90;;;13.50;99.90;;;;;;4968822;28;20465;-79
2021/08/31 03:34:10;;;;;;;1.00;1.00;;;13.50;99.90;;;;;;4969082;28;20237;-80
2021/08/31 03:36:37;;;;;;;0.95;0.95;;;13.50;99.90;;;;;;4965281;28;20259;-80
2021/08/31 03:39:04;;;;;;;1.00;1.00;;;13.50;99.90;;;;;;4963731;28;20265;-79
2021/08/31 03:41:31;;;;;;;0.90;0.90;;;13.40;99.90;;;;;;4969333;28;20229;-80
2021/08/31 03:44:01;;;;;;;1.08;1.08;;;13.40;99.90;;;;;;4974851;28;20229;-81
2021/08/31 03:46:28;;;;;;;1.00;1.00;;;13.40;99.90;;;;;;4970239;28;20225;-81
2021/08/31 03:48:55;;;;;;;0.93;0.93;;;13.40;99.90;;;;;;4973152;28;20230;-81
2021/08/31 03:51:22;;;;;;;0.90;0.90;;;13.30;99.90;;;;;;4974453;28;20280;-83
2021/08/31 03:53:49;;;;;;;0.85;0.85;;;13.20;99.90;;;;;;4972417;28;20225;-81
2021/08/31 03:56:16;;;;;;;0.95;0.95;;;13.20;99.90;;;;;;4964506;28;20288;-81
2021/08/31 03:58:43;;;;;;;1.33;1.20;;;13.30;99.90;;;;;;4970271;28;20237;-82
2021/08/31 04:01:11;;;;;;;0.90;0.90;;;13.20;99.90;;;;;;4969898;28;20221;-84
2021/08/31 04:03:38;;;;;;;0.80;0.80;;;13.20;99.90;;;;;;4966308;28;20213;-84
2021/08/31 04:06:05;;;;;;;0.90;0.90;;;13.20;99.90;;;;;;4965138;28;20233;-81
2021/08/31 04:08:32;;;;;;;0.90;0.90;;;13.20;99.90;;;;;;4965505;28;20249;-81
2021/08/31 04:11:00;;;;;;;1.00;1.00;;;13.20;99.90;;;;;;4967488;28;20281;-82
2021/08/31 04:13:27;;;;;;;0.80;0.80;;;13.20;99.90;;;;;;4970270;28;20229;-83
2021/08/31 04:15:54;;;;;;;0.90;0.90;;;13.20;99.90;;;;;;4966555;28;20251;-79
2021/08/31 04:18:22;;;;;;;0.98;0.98;;;13.20;99.90;;;;;;4967656;28;20229;-80
2021/08/31 04:20:49;;;;;;;0.90;0.90;;;13.20;99.90;;;;;;4963633;28;20692;-78
2021/08/31 04:23:16;;;;;;;1.08;1.08;;;13.20;99.90;;;;;;4964084;28;20237;-79
2021/08/31 04:25:43;;;;;;;0.80;0.80;;;13.20;99.90;;;;;;4962520;28;20241;-79
2021/08/31 04:28:10;;;;;;;1.00;1.00;;;13.30;99.90;;;;;;4967663;28;20237;-82
2021/08/31 04:30:37;;;;;;;1.08;0.98;;;13.20;99.90;;;;;;4969047;28;20225;-83
2021/08/31 04:33:04;;;;;;;1.02;1.02;;;13.30;99.90;;;;;;4965253;28;20692;-80
2021/08/31 04:35:32;;;;;;;0.90;0.90;;;13.30;99.90;;;;;;4966096;28;20284;-84
2021/08/31 04:37:59;;;;;;;0.93;0.93;;;13.30;99.90;;;;;;4968569;28;20221;-82
2021/08/31 04:40:26;;;;;;;1.10;1.05;;;13.30;99.90;;;;;;4967197;28;20225;-83
2021/08/31 04:42:53;;;;;;;0.80;0.80;;;13.30;99.90;;;;;;4966844;28;20292;-81
2021/08/31 04:45:20;;;;;;;1.08;1.08;;;13.30;99.90;;;;;;4968546;28;20229;-84
2021/08/31 04:47:48;;;;;;;1.10;1.10;;;13.20;99.90;;;;;;4965186;28;20237;-81
2021/08/31 04:50:15;;;;;;;1.13;1.13;;;13.20;99.90;;;;;;4966661;28;20237;-83
2021/08/31 04:52:45;;;;;;;1.08;1.08;;;13.20;99.90;;;;;;4967340;28;20229;-80
2021/08/31 04:55:13;;;;;;;0.80;0.80;;;13.20;99.90;;;;;;4967247;28;20237;-81
2021/08/31 04:57:40;;;;;;;0.95;0.95;;;13.20;99.90;;;;;;4964441;28;20272;-81
2021/08/31 05:00:08;;;;;;;1.00;1.00;;;13.20;99.90;;;;;;4965000;28;20233;-84
2021/08/31 05:02:36;;;;;;;1.02;1.02;;;13.20;99.90;;;;;;4963336;28;20276;-82
2021/08/31 05:05:04;;;;;;;1.02;1.02;;;13.20;99.90;;;;;;4966624;28;20240;-81
2021/08/31 05:07:31;;;;;;;1.10;1.10;;;13.20;99.90;;;;;;4965467;28;20615;-80
2021/08/31 05:10:00;;;;;;;1.00;1.00;;;13.20;99.90;;;;;;4962891;28;20275;-79
2021/08/31 05:12:28;;;;;;;0.77;0.77;;;13.20;99.90;;;;;;4964463;28;20228;-80
2021/08/31 05:14:55;;;;;;;0.85;0.85;;;13.30;99.90;;;;;;4963568;28;20229;-79
2021/08/31 05:17:22;;;;;;;0.80;0.80;;;13.30;99.90;;;;;;4961694;28;20273;-80
2021/08/31 05:19:49;;;;;;;1.00;1.00;;;13.30;99.90;;;;;;4964377;28;20229;-80
2021/08/31 05:22:16;;;;;;;0.80;0.80;;;13.30;99.90;;;;;;4965150;28;20284;-80
2021/08/31 05:24:46;;;;;;;0.80;0.80;;;13.40;99.90;;;;;;4961359;28;20695;-80
2021/08/31 05:27:14;;;;;;;0.80;0.80;;;13.60;99.90;;;;;;4963751;28;20233;-79
2021/08/31 05:29:41;;;;;;;0.88;0.88;;;14.00;99.90;;;;;;4967991;28;20232;-80
2021/08/31 05:32:09;;;;;;;1.00;0.90;;;14.40;99.90;;;;;;4966787;28;20256;-80
2021/08/31 05:34:36;;;;;;;1.00;1.00;;;14.70;99.90;;;;;;4971224;28;20316;-79
2021/08/31 05:37:03;;;;;;;1.95;1.02;;;15.10;99.90;;;;;;4970308;28;20971;-79
2021/08/31 05:39:33;;;;;;;0.90;0.90;;;15.40;99.90;;;;;;4972085;28;20225;-79
2021/08/31 05:42:01;;;;;;;0.82;0.82;;;15.50;99.90;;;;;;4969366;28;20300;-78
2021/08/31 05:44:31;;;;;;;0.85;0.85;;;15.60;99.90;;;;;;4971058;28;20312;-78
2021/08/31 05:46:59;;;;;;;0.90;0.90;;;15.80;99.90;;;;;;4969286;28;20230;-78
2021/08/31 05:49:26;;;;;;;0.90;0.90;;;16.20;99.90;;;;;;4972262;28;20612;-79
2021/08/31 05:51:53;;;;;;;0.80;0.80;;;16.40;99.90;;;;;;4968527;28;20222;-79
2021/08/31 05:54:21;;;;;;;0.95;0.95;;;16.70;99.90;;;;;;4976785;28;20681;-79
2021/08/31 05:56:48;;;;;;;1.00;1.00;;;16.80;99.90;;;;;;4979011;28;20251;-79
2021/08/31 05:59:15;;;;;;;1.33;1.00;;;17.10;99.90;;;;;;4976988;28;20250;-79
2021/08/31 06:01:46;;;;;;;0.88;0.88;;;17.20;99.90;;;;;;4977614;28;20248;-79
2021/08/31 06:04:13;;;;;;;2.30;0.98;;;17.20;99.90;;;;;;4961287;28;20229;-78
2021/08/31 06:06:40;;;;;;;1.27;1.17;;;17.00;99.90;;;;;;4968739;28;20222;-78
2021/08/31 06:09:08;;;;;;;0.98;0.98;;;16.90;99.90;;;;;;4966942;28;20632;-78
2021/08/31 06:11:38;;;;;;;0.90;0.90;;;16.90;99.90;;;;;;4967080;28;20225;-78
2021/08/31 06:14:05;;;;;;;0.80;0.80;;;17.00;99.90;;;;;;4963107;28;20222;-78
2021/08/31 06:16:32;;;;;;;0.90;0.90;;;17.30;99.90;;;;;;4967348;28;20244;-78
2021/08/31 06:19:01;;;;;;;1.10;1.10;;;17.70;99.90;;;;;;4966373;28;20221;-78
2021/08/31 06:21:28;;;;;;;1.10;0.98;;;17.90;99.90;;;;;;4969144;28;20263;-78
2021/08/31 06:23:56;;;;;;;1.13;1.02;;;17.90;99.90;;;;;;4964555;28;20225;-78
2021/08/31 06:26:23;;;;;;;1.25;1.00;;;18.10;99.90;;;;;;4967855;28;20225;-78
2021/08/31 06:28:50;;;;;;;2.28;1.02;;;18.20;99.90;;;;;;4969259;28;20639;-79
2021/08/31 06:31:17;;;;;;;1.00;1.00;;;18.40;99.90;;;;;;4966404;28;20291;-79
2021/08/31 06:33:45;;;;;;;1.40;1.00;;;18.50;99.90;;;;;;4965383;28;20233;-78
2021/08/31 06:36:17;;;;;;;1.20;1.10;;;18.50;99.90;;;;;;4967614;28;20233;-78
2021/08/31 06:38:44;;;;;;;1.35;1.02;;;18.20;99.90;;;;;;4964433;28;20226;-78
2021/08/31 06:41:11;;;;;;;1.33;1.02;;;18.10;99.90;;;;;;4965955;28;20219;-78
2021/08/31 06:43:38;;;;;;;1.80;1.42;;;18.10;99.90;;;;;;4964034;28;20233;-79
2021/08/31 06:46:06;;;;;;;1.13;1.08;;;18.20;99.90;;;;;;4962770;28;20284;-79
2021/08/31 06:48:34;;;;;;;1.38;1.27;;;18.30;99.90;;;;;;4968257;28;20233;-79
2021/08/31 06:51:01;;;;;;;1.30;1.20;;;18.50;99.90;;;;;;4964024;28;20273;-78
2021/08/31 06:53:29;;;;;;;1.42;1.20;;;18.60;99.90;;;;;;4967585;28;20272;-78
2021/08/31 06:55:56;;;;;;;1.20;1.10;;;18.60;99.90;;;;;;4972367;28;20233;-79
2021/08/31 06:58:23;;;;;;;2.38;1.20;;;18.70;99.90;;;;;;4969318;28;20231;-78
2021/08/31 07:00:50;;;;;;;1.15;1.00;;;18.90;99.90;;;;;;4965416;28;20225;-79
2021/08/31 07:03:17;;;;;;;2.00;0.98;;;18.90;99.90;;;;;;4966512;28;20229;-78
2021/08/31 07:05:44;;;;;;;1.52;1.23;;;19.10;99.90;;;;;;4959254;28;20664;-78
2021/08/31 07:08:11;;;;;;;0.90;0.90;;;19.30;99.90;;;;;;4963545;28;20221;-78
2021/08/31 07:10:40;;;;;;;1.13;1.10;;;19.50;99.90;;;;;;4964111;28;20249;-78
2021/08/31 07:13:07;;;;;;;2.10;1.20;;;19.90;99.90;;;;;;4972488;28;20292;-80
2021/08/31 07:15:34;;;;;;;1.20;1.10;;;20.00;99.90;;;;;;4973327;28;20256;-79
2021/08/31 07:18:01;;;;;;;2.95;1.35;;;20.00;99.90;;;;;;4973607;28;20229;-79
2021/08/31 07:20:29;;;;;;;1.00;0.90;;;20.30;99.90;;;;;;4969040;28;20226;-79
2021/08/31 07:22:56;;;;;;;1.10;1.00;;;20.30;99.90;;;;;;4967836;28;20563;-79
2021/08/31 07:25:23;;;;;;;1.00;1.00;;;20.10;99.90;;;;;;4969559;28;20692;-79
2021/08/31 07:27:52;;;;;;;1.30;1.20;;;19.70;99.90;;;;;;4967681;28;20217;-79
2021/08/31 07:30:19;;;;;;;0.80;0.80;;;19.50;99.90;;;;;;4966790;28;20324;-80
2021/08/31 07:32:46;;;;;;;0.80;0.73;;;19.40;99.90;;;;;;4969646;28;20221;-79
2021/08/31 07:35:13;;;;;;;0.73;0.73;;;19.60;99.90;;;;;;4969669;28;20251;-79
2021/08/31 07:37:40;;;;;;;1.58;1.00;;;19.80;99.90;;;;;;4969388;28;20272;-79
2021/08/31 07:40:09;;;;;;;1.27;1.17;;;20.10;99.90;;;;;;4970781;28;20268;-79
2021/08/31 07:42:36;;;;;;;5.07;1.10;;;20.20;99.90;;;;;;4969335;28;20232;-80
2021/08/31 07:45:08;;;;;;;1.45;1.00;;;20.30;99.90;;;;;;4967045;28;20229;-78
2021/08/31 07:47:36;;;;;;;0.80;0.80;;;20.30;99.90;;;;;;4965908;28;20296;-79
2021/08/31 07:50:04;;;;;;;1.13;1.00;;;20.20;99.90;;;;;;4966705;28;20229;-78
2021/08/31 07:52:32;;;;;;;1.02;0.93;;;20.30;99.90;;;;;;4968992;28;20225;-80
2021/08/31 07:54:59;;;;;;;0.90;0.90;;;20.20;99.90;;;;;;4975095;28;20771;-80
2021/08/31 07:57:27;;;;;;;0.80;0.80;;;20.20;99.90;;;;;;4972960;28;20221;-80
2021/08/31 07:59:54;;;;;;;0.80;0.80;;;20.30;99.90;;;;;;4974145;28;20233;-79
2021/08/31 08:02:22;;;;;;;2.13;1.05;;;20.50;99.90;;;;;;4972557;28;20222;-80
2021/08/31 08:04:51;;;;;;;0.98;0.98;;;20.70;99.90;;;;;;4970107;28;20226;-80
2021/08/31 08:07:18;;;;;;;0.80;0.80;;;21.00;99.90;;;;;;4974974;28;20288;-80
2021/08/31 08:09:45;;;;;;;2.90;0.90;;;21.30;99.90;;;;;;4973090;28;20237;-82
2021/08/31 08:12:12;;;;;;;2.15;1.00;;;21.60;99.90;;;;;;4973928;28;20221;-82
2021/08/31 08:14:39;;;;;;;0.80;0.80;;;21.60;99.90;;;;;;4970484;28;20560;-79
2021/08/31 08:17:06;;;;;;;0.70;0.70;;;21.70;99.90;;;;;;4968135;28;20647;-80
2021/08/31 08:19:35;;;;;;;0.80;0.80;;;21.60;99.90;;;;;;4969791;28;20229;-80
2021/08/31 08:22:02;;;;;;;0.80;0.80;;;21.60;99.90;;;;;;4965256;28;20225;-80
2021/08/31 08:24:29;;;;;;;1.13;1.02;;;21.80;99.90;;;;;;4965361;28;20221;-80
2021/08/31 08:26:59;;;;;;;1.13;0.80;;;21.90;99.90;;;;;;4964129;28;20234;-80
2021/08/31 08:29:27;;;;;;;0.75;0.75;;;22.20;99.90;;;;;;4960644;28;20273;-80
2021/08/31 08:31:55;;;;;;;0.75;0.75;;;22.20;99.90;;;;;;4969528;28;20792;-81
2021/08/31 08:34:23;;;;;;;0.80;0.80;;;22.50;99.90;;;;;;4970744;28;20237;-81
2021/08/31 08:36:51;;;;;;;0.85;0.80;;;22.50;99.90;;;;;;4969771;28;20225;-81
2021/08/31 08:39:19;;;;;;;0.60;0.60;;;22.40;99.90;;;;;;4948761;28;20344;-82
2021/08/31 08:41:46;;;;;;;0.80;0.80;;;22.50;99.90;;;;;;4968104;28;20229;-80
2021/08/31 08:44:14;;;;;;;2.08;1.00;;;22.70;99.90;;;;;;4970725;28;20225;-82
2021/08/31 08:46:43;;;;;;;0.88;0.88;;;22.80;99.90;;;;;;4967962;28;20244;-80
2021/08/31 08:49:12;;;;;;;1.27;0.75;;;22.60;99.90;;;;;;4968537;28;20252;-80
2021/08/31 08:51:40;;;;;;;0.80;0.80;;;22.40;99.90;;;;;;4964851;28;20225;-79
2021/08/31 08:54:09;;;;;;;0.93;0.70;;;22.20;99.90;;;;;;4960497;28;20240;-80
2021/08/31 08:56:36;;;;;;;1.30;0.77;;;22.10;99.90;;;;;;4959629;28;20236;-78
2021/08/31 08:59:03;;;;;;;1.17;1.00;;;22.10;99.90;;;;;;4961905;28;20225;-80
2021/08/31 09:01:41;;;;;;;0.80;0.80;;;22.20;99.90;;;;;;4963590;28;20225;-80
2021/08/31 09:04:08;;;;;;;0.65;0.65;;;22.30;99.90;;;;;;4962789;28;20605;-80
2021/08/31 09:06:36;;;;;;;1.25;0.93;;;22.40;99.90;;;;;;4964276;28;20237;-80
2021/08/31 09:09:08;;;;;;;1.73;0.85;;;22.40;99.90;;;;;;4958392;28;20230;-80
2021/08/31 09:11:38;;;;;;;1.08;0.90;;;22.30;99.90;;;;;;4963583;28;20299;-80
2021/08/31 09:14:24;;;;;;;0.80;0.80;;;22.30;99.90;;;;;;4964984;28;20316;-79
2021/08/31 09:16:52;;;;;;;2.00;0.70;;;22.80;99.90;;;;;;4963082;28;20257;-78
2021/08/31 09:19:28;;;;;;;0.70;0.70;;;23.20;99.90;;;;;;4964775;28;20284;-80
2021/08/31 09:22:11;;;;;;;1.42;0.80;;;23.40;99.90;;;;;;4961396;28;20804;-79
2021/08/31 09:24:40;;;;;;;0.90;0.80;;;23.50;99.90;;;;;;4962813;28;20225;-79
2021/08/31 09:27:07;;;;;;;1.00;0.90;;;23.40;99.90;;;;;;4962369;28;21017;-78
2021/08/31 09:29:39;;;;;;;0.80;0.77;;;23.20;99.90;;;;;;4961323;28;20233;-77
2021/08/31 09:32:10;;;;;;;1.00;0.77;;;23.10;99.90;;;;;;4958869;28;20333;-78
2021/08/31 09:34:42;;;;;;;1.55;0.88;;;22.90;99.90;;;;;;4956030;28;20672;-78
2021/08/31 09:37:46;;;;;;;0.80;0.80;;;22.90;99.90;;;;;;4960324;28;20232;-77
2021/08/31 09:40:17;;;;;;;2.00;1.10;;;22.90;99.90;;;;;;4883632;29;20239;-77
2021/08/31 09:42:56;;;;;;;0.73;0.73;;;23.00;99.90;;;;;;4883678;29;20224;-77
2021/08/31 09:45:26;;;;;;;0.70;0.60;;;23.10;99.90;;;;;;4926357;28;20231;-77
2021/08/31 09:47:54;;;;;;;2.25;0.90;;;23.30;99.90;;;;;;4962179;28;20620;-78
2021/08/31 09:50:30;;;;;;;0.65;0.63;;;23.50;99.90;;;;;;4961211;28;20305;-78
2021/08/31 09:53:05;;;;;;;1.38;0.75;;;23.90;99.90;;;;;;4961442;28;20228;-78
2021/08/31 09:55:35;;;;;;;1.52;0.90;;;24.10;99.90;;;;;;4961900;28;21141;-78
2021/08/31 09:58:17;;;;;;;0.85;0.60;;;24.10;99.90;;;;;;4959032;28;20766;-77
2021/08/31 10:00:46;;;;;;;1.20;0.93;;;24.30;99.90;;;;;;4966183;28;20232;-77
2021/08/31 10:03:14;;;;;;;0.50;0.50;;;24.70;99.90;;;;;;4964504;28;20225;-78
2021/08/31 10:05:42;;;;;;;0.70;0.70;;;24.80;99.90;;;;;;4963606;28;20272;-78
2021/08/31 10:08:10;;;;;;;1.17;0.88;;;24.80;99.90;;;;;;4959925;28;20700;-78
2021/08/31 10:10:40;;;;;;;0.82;0.82;;;24.50;99.90;;;;;;4957982;28;20226;-78
2021/08/31 10:13:10;;;;;;;0.70;0.70;;;24.50;99.90;;;;;;4961421;28;20957;-78
2021/08/31 10:15:43;;;;;;;1.27;0.50;;;24.50;99.90;;;;;;4961663;28;20328;-78
2021/08/31 10:18:11;;;;;;;0.60;0.60;;;24.40;99.90;;;;;;4968199;28;20712;-78
2021/08/31 10:20:44;;;;;;;0.80;0.80;;;24.20;99.90;;;;;;4961677;28;20277;-77
2021/08/31 10:23:13;;;;;;;0.68;0.68;;;24.20;99.90;;;;;;4962940;28;20234;-79
2021/08/31 10:25:42;;;;;;;0.60;0.60;;;24.20;99.90;;;;;;4965440;28;20249;-78
2021/08/31 10:28:24;;;;;;;0.70;0.70;;;24.20;99.90;;;;;;4959524;28;20226;-79
2021/08/31 10:30:52;;;;;;;0.80;0.70;;;24.40;99.90;;;;;;4958509;28;20225;-78
2021/08/31 10:33:37;;;;;;;0.80;0.80;;;24.40;99.90;;;;;;4968435;28;20225;-78
2021/08/31 10:36:10;;;;;;;0.70;0.70;;;24.50;99.90;;;;;;4963720;28;20233;-79
2021/08/31 10:38:52;;;;;;;2.25;0.60;;;24.60;99.90;;;;;;4965328;28;20233;-79
2021/08/31 10:41:42;;;;;;;0.70;0.70;;;24.80;99.90;;;;;;4962706;28;20237;-78
2021/08/31 10:44:11;;;;;;;0.60;0.60;;;25.00;99.90;;;;;;4959892;28;20222;-78
2021/08/31 10:47:07;;;;;;;1.92;0.70;;;25.40;99.90;;;;;;4964234;28;20256;-78
2021/08/31 10:50:15;;;;;;;0.80;0.80;;;25.30;99.90;;;;;;4961358;28;20230;-79
2021/08/31 10:53:02;;;;;;;0.63;0.55;;;25.20;99.90;;;;;;4927429;28;20261;-78
2021/08/31 10:55:50;;;;;;;0.63;0.63;;;25.20;99.90;;;;;;4959288;28;20226;-79
2021/08/31 10:58:47;;;;;;;0.60;0.60;;;25.50;99.90;;;;;;4961525;28;20275;-79
2021/08/31 11:01:15;;;;;;;0.75;0.70;;;25.70;99.90;;;;;;4962635;28;20221;-80
2021/08/31 11:03:43;;;;;;;0.57;0.57;;;25.50;99.90;;;;;;4964512;28;20316;-78
2021/08/31 11:06:19;;;;;;;0.50;0.50;;;25.40;99.90;;;;;;4964549;28;20233;-79
2021/08/31 11:09:12;;;;;;;0.55;0.52;;;25.60;99.90;;;;;;4966301;28;20225;-79
2021/08/31 11:11:40;;;;;;;2.05;0.60;;;25.70;99.90;;;;;;4967536;28;20240;-78
2021/08/31 11:14:08;;;;;;;0.77;0.77;;;25.70;99.90;;;;;;4957308;28;20234;-79
2021/08/31 11:16:39;;;;;;;0.60;0.60;;;25.80;99.90;;;;;;4960260;28;20233;-79
2021/08/31 11:19:22;;;;;;;0.57;0.57;;;25.80;99.90;;;;;;4961183;28;20229;-78
2021/08/31 11:21:51;;;;;;;0.70;0.70;;;25.70;99.90;;;;;;4963969;28;20304;-83
2021/08/31 11:24:18;;;;;;;0.73;0.60;;;25.60;99.90;;;;;;4964283;28;20301;-83
2021/08/31 11:26:45;;;;;;;0.50;0.50;;;25.60;99.90;;;;;;4964091;28;20778;-80
2021/08/31 11:29:14;;;;;;;1.38;0.50;;;25.60;99.90;;;;;;4964411;28;20320;-81
2021/08/31 11:31:42;;;;;;;0.60;0.60;;;25.70;99.90;;;;;;4964970;28;20292;-84
2021/08/31 11:34:12;;;;;;;0.50;0.50;;;25.90;99.90;;;;;;4946128;28;20218;-85
2021/08/31 11:36:46;;;;;;;0.63;0.50;;;25.90;99.90;;;;;;4958732;28;20333;-84
2021/08/31 11:39:15;;;;;;;1.20;0.70;;;25.80;99.90;;;;;;4914694;28;20228;-84
2021/08/31 11:41:44;;;;;;;0.60;0.60;;;25.80;99.90;;;;;;4960316;28;20229;-81
2021/08/31 11:44:15;;;;;;;0.50;0.50;;;26.00;99.90;;;;;;4959950;28;20241;-85
2021/08/31 11:46:44;;;;;;;0.40;0.40;;;26.20;99.90;;;;;;4960149;28;20233;-85
2021/08/31 11:49:17;;;;;;;0.50;0.50;;;26.60;99.90;;;;;;4961699;28;20218;-86
2021/08/31 11:51:59;;;;;;;0.57;0.57;;;27.00;99.90;;;;;;4962098;28;20304;-86
2021/08/31 11:54:28;;;;;;;0.50;0.50;;;27.20;99.90;;;;;;4962182;28;20304;-85
2021/08/31 11:56:58;;;;;;;0.50;0.50;;;27.10;99.90;;;;;;4961408;28;20228;-83
2021/08/31 11:59:37;;;;;;;0.50;0.50;;;27.10;99.90;;;;;;4963777;28;20296;-86
2021/08/31 12:02:16;;;;;;;0.45;0.45;;;27.00;99.90;;;;;;4960867;28;20335;-87
2021/08/31 12:04:46;;;;;;;0.57;0.57;;;26.70;99.90;;;;;;4959299;28;20224;-86
2021/08/31 12:07:17;;;;;;;0.40;0.40;;;26.70;99.90;;;;;;4963530;28;20312;-85
2021/08/31 12:09:45;;;;;;;0.60;0.50;;;26.70;99.90;;;;;;4961931;28;20230;-86
2021/08/31 12:12:13;;;;;;;0.60;0.60;;;26.70;99.90;;;;;;4964425;28;20577;-86
2021/08/31 12:14:46;;;;;;;1.77;0.50;;;26.70;99.90;;;;;;4962396;28;20236;-86
2021/08/31 12:17:14;;;;;;;1.95;0.50;;;26.80;99.90;;;;;;4961452;28;20275;-86
2021/08/31 12:19:45;;;;;;;0.40;0.40;;;26.70;99.90;;;;;;4963710;28;20217;-86
2021/08/31 12:22:15;;;;;;;0.40;0.40;;;26.30;99.90;;;;;;4956533;28;20230;-83
2021/08/31 12:24:43;;;;;;;0.43;0.40;;;26.20;99.90;;;;;;4961508;28;20225;-85
2021/08/31 12:27:14;;;;;;;0.52;0.30;;;26.50;99.90;;;;;;4961083;28;20252;-84
2021/08/31 12:29:51;;;;;;;0.47;0.32;;;26.40;99.90;;;;;;4960222;28;20248;-85
2021/08/31 12:32:26;;;;;;;0.50;0.47;;;26.10;99.90;;;;;;4962800;28;20217;-83
2021/08/31 12:34:54;;;;;;;0.30;0.30;;;25.70;99.90;;;;;;4960634;28;20213;-84
2021/08/31 12:37:32;;;;;;;0.50;0.50;;;25.30;99.90;;;;;;4962739;28;20217;-86
2021/08/31 12:40:18;;;;;;;0.50;0.30;;;25.10;99.90;;;;;;4962157;28;20225;-85
2021/08/31 12:42:47;;;;;;;0.85;0.52;;;25.10;99.90;;;;;;4966386;28;20218;-81
2021/08/31 12:45:25;;;;;;;1.15;0.68;;;25.10;99.90;;;;;;4957825;28;20221;-80
2021/08/31 12:47:54;;;;;;;3.42;0.60;;;25.00;99.90;;;;;;4961210;28;20217;-86
2021/08/31 12:50:22;;;;;;;9.38;1.20;;;24.70;99.90;;;;;;4942234;28;20222;-86
2021/08/31 12:56:15;;;;;;;2.50;0.98;;;23.60;99.90;;;;;;4933886;28;20227;-83
2021/08/31 12:59:04;;;;;;;0.73;0.55;;;22.70;99.90;;;;;;4964356;28;20225;-82
2021/08/31 13:01:51;;;;;;;0.57;0.50;;;22.20;99.90;;;;;;4929249;28;20256;-83
2021/08/31 13:04:21;;;;;;;0.57;0.50;;;21.80;99.90;;;;;;4941527;28;20226;-84